sensor_id;sensor_type;location;lat;lon;timestamp;pressure;altitude;pressure_sealevel;temperature;humidity
13869;BME280;7004;48.206;16.402;2023-04-02T00:11:46;98819.34;;;11.44;67.91
13869;BME280;7004;48.206;16.402;2023-04-02T00:14:32;98813.63;;;11.27;68.86
13869;BME280;7004;48.206;16.402;2023-04-02T00:17:01;98812.47;;;11.52;67.85
13869;BME280;7004;48.206;16.402;2023-04-02T00:19:41;98814.56;;;11.37;67.61
13869;BME280;7004;48.206;16.402;2023-04-02T00:22:17;98821.13;;;11.54;66.92
13869;BME280;7004;48.206;16.402;2023-04-02T00:24:44;98823.53;;;11.46;66.98
13869;BME280;7004;48.206;16.402;2023-04-02T00:27:13;98826.13;;;11.36;66.89
13869;BME280;7004;48.206;16.402;2023-04-02T00:29:55;98826.59;;;11.42;67.15
13869;BME280;7004;48.206;16.402;2023-04-02T00:32:29;98829.31;;;11.51;66.05
13869;BME280;7004;48.206;16.402;2023-04-02T00:34:57;98826.13;;;11.36;66.83
13869;BME280;7004;48.206;16.402;2023-04-02T00:37:28;98821.03;;;11.33;67.21
13869;BME280;7004;48.206;16.402;2023-04-02T00:40:03;98822.97;;;11.43;67.26
13869;BME280;7004;48.206;16.402;2023-04-02T00:42:33;98835.47;;;11.41;67.72
13869;BME280;7004;48.206;16.402;2023-04-02T00:45:01;98833.13;;;11.15;68.88
13869;BME280;7004;48.206;16.402;2023-04-02T00:47:36;98829.31;;;11.51;68.20
13869;BME280;7004;48.206;16.402;2023-04-02T00:52:43;98829.34;;;11.40;69.66
13869;BME280;7004;48.206;16.402;2023-04-02T00:57:59;98842.00;;;11.25;70.21
13869;BME280;7004;48.206;16.402;2023-04-02T01:00:34;98831.56;;;11.24;69.43
13869;BME280;7004;48.206;16.402;2023-04-02T01:06:12;98831.53;;;11.67;69.06
13869;BME280;7004;48.206;16.402;2023-04-02T01:15:15;98821.97;;;11.44;69.18
13869;BME280;7004;48.206;16.402;2023-04-02T01:24:06;98831.56;;;11.01;70.36
13869;BME280;7004;48.206;16.402;2023-04-02T01:27:01;98831.06;;;11.30;69.62
13869;BME280;7004;48.206;16.402;2023-04-02T01:29:41;98839.88;;;11.51;68.76
13869;BME280;7004;48.206;16.402;2023-04-02T01:32:15;98836.47;;;11.17;69.52
13869;BME280;7004;48.206;16.402;2023-04-02T01:34:45;98842.84;;;11.14;69.81
13869;BME280;7004;48.206;16.402;2023-04-02T01:37:49;98842.78;;;11.48;68.48
13869;BME280;7004;48.206;16.402;2023-04-02T01:40:34;98843.16;;;11.44;69.00
13869;BME280;7004;48.206;16.402;2023-04-02T01:45:48;98843.06;;;11.23;70.15
13869;BME280;7004;48.206;16.402;2023-04-02T01:48:24;98836.44;;;11.28;70.52
13869;BME280;7004;48.206;16.402;2023-04-02T01:50:57;98835.28;;;11.21;70.02
13869;BME280;7004;48.206;16.402;2023-04-02T01:53:27;98848.00;;;11.27;69.75
13869;BME280;7004;48.206;16.402;2023-04-02T01:56:00;98847.56;;;11.11;70.89
13869;BME280;7004;48.206;16.402;2023-04-02T01:58:30;98849.09;;;11.25;70.90
13869;BME280;7004;48.206;16.402;2023-04-02T02:00:59;98844.56;;;11.15;70.68
13869;BME280;7004;48.206;16.402;2023-04-02T02:03:29;98843.94;;;10.89;72.00
13869;BME280;7004;48.206;16.402;2023-04-02T02:05:57;98849.72;;;10.94;71.82
13869;BME280;7004;48.206;16.402;2023-04-02T02:08:52;98848.97;;;11.15;71.60
13869;BME280;7004;48.206;16.402;2023-04-02T02:11:28;98847.31;;;10.91;72.67
13869;BME280;7004;48.206;16.402;2023-04-02T02:14:22;98846.75;;;10.77;72.72
13869;BME280;7004;48.206;16.402;2023-04-02T02:16:56;98848.38;;;11.23;71.92
13869;BME280;7004;48.206;16.402;2023-04-02T02:19:35;98845.25;;;11.18;71.45
13869;BME280;7004;48.206;16.402;2023-04-02T02:24:49;98847.44;;;11.24;71.28
13869;BME280;7004;48.206;16.402;2023-04-02T02:29:59;98846.09;;;11.29;71.28
13869;BME280;7004;48.206;16.402;2023-04-02T02:32:30;98854.00;;;11.41;70.54
13869;BME280;7004;48.206;16.402;2023-04-02T02:35:19;98846.84;;;11.09;71.88
13869;BME280;7004;48.206;16.402;2023-04-02T02:37:56;98850.22;;;10.88;72.91
13869;BME280;7004;48.206;16.402;2023-04-02T02:40:35;98841.19;;;10.91;72.59
13869;BME280;7004;48.206;16.402;2023-04-02T02:43:07;98842.84;;;11.14;72.12
13869;BME280;7004;48.206;16.402;2023-04-02T02:45:37;98840.25;;;11.03;72.22
13869;BME280;7004;48.206;16.402;2023-04-02T02:48:19;98848.66;;;10.86;72.58
13869;BME280;7004;48.206;16.402;2023-04-02T02:50:51;98845.72;;;11.34;71.32
13869;BME280;7004;48.206;16.402;2023-04-02T02:53:23;98836.97;;;11.00;72.12
13869;BME280;7004;48.206;16.402;2023-04-02T02:55:56;98845.66;;;11.13;71.99
13869;BME280;7004;48.206;16.402;2023-04-02T02:58:28;98845.16;;;11.19;71.65
13869;BME280;7004;48.206;16.402;2023-04-02T03:00:58;98849.09;;;11.25;71.70
13869;BME280;7004;48.206;16.402;2023-04-02T03:03:29;98854.75;;;11.20;71.96
13869;BME280;7004;48.206;16.402;2023-04-02T03:06:02;98856.44;;;11.10;72.18
13869;BME280;7004;48.206;16.402;2023-04-02T03:11:48;98858.97;;;10.89;73.16
13869;BME280;7004;48.206;16.402;2023-04-02T03:14:47;98865.22;;;10.99;72.94
13869;BME280;7004;48.206;16.402;2023-04-02T03:17:57;98867.84;;;10.54;75.56
13869;BME280;7004;48.206;16.402;2023-04-02T03:20:46;98868.47;;;10.69;75.28
13869;BME280;7004;48.206;16.402;2023-04-02T03:23:28;98863.53;;;10.87;75.21
13869;BME280;7004;48.206;16.402;2023-04-02T03:28:43;98869.56;;;10.78;75.64
13869;BME280;7004;48.206;16.402;2023-04-02T03:31:41;98864.66;;;10.84;75.82
13869;BME280;7004;48.206;16.402;2023-04-02T03:34:37;98863.06;;;10.93;75.64
13869;BME280;7004;48.206;16.402;2023-04-02T03:37:33;98864.25;;;10.89;75.58
13869;BME280;7004;48.206;16.402;2023-04-02T03:40:07;98867.50;;;11.04;74.55
13869;BME280;7004;48.206;16.402;2023-04-02T03:45:27;98872.06;;;10.68;76.31
13869;BME280;7004;48.206;16.402;2023-04-02T03:50:56;98878.69;;;10.96;75.78
13869;BME280;7004;48.206;16.402;2023-04-02T03:53:25;98879.88;;;10.92;76.27
13869;BME280;7004;48.206;16.402;2023-04-02T03:55:54;98885.78;;;10.96;76.83
13869;BME280;7004;48.206;16.402;2023-04-02T03:58:37;98889.63;;;11.14;76.21
13869;BME280;7004;48.206;16.402;2023-04-02T04:01:38;98882.88;;;10.76;77.68
13869;BME280;7004;48.206;16.402;2023-04-02T04:04:13;98896.50;;;11.05;76.11
13869;BME280;7004;48.206;16.402;2023-04-02T04:06:42;98896.38;;;10.84;77.05
13869;BME280;7004;48.206;16.402;2023-04-02T04:09:19;98894.53;;;10.74;77.26
13869;BME280;7004;48.206;16.402;2023-04-02T04:11:59;98909.94;;;11.02;76.27
13869;BME280;7004;48.206;16.402;2023-04-02T04:14:29;98910.28;;;10.86;77.52
13869;BME280;7004;48.206;16.402;2023-04-02T04:17:31;98912.47;;;11.04;76.68
13869;BME280;7004;48.206;16.402;2023-04-02T04:22:40;98923.25;;;10.67;77.99
13869;BME280;7004;48.206;16.402;2023-04-02T04:25:35;98927.47;;;10.92;76.50
13869;BME280;7004;48.206;16.402;2023-04-02T04:28:35;98931.28;;;10.65;78.02
13869;BME280;7004;48.206;16.402;2023-04-02T04:31:20;98931.94;;;10.91;76.74
13869;BME280;7004;48.206;16.402;2023-04-02T04:33:52;98941.38;;;10.60;79.53
13869;BME280;7004;48.206;16.402;2023-04-02T04:36:28;98942.16;;;10.96;77.70
13869;BME280;7004;48.206;16.402;2023-04-02T04:39:07;98940.00;;;11.01;77.93
13869;BME280;7004;48.206;16.402;2023-04-02T04:41:40;98945.13;;;10.69;78.97
13869;BME280;7004;48.206;16.402;2023-04-02T04:44:33;98947.78;;;10.91;77.19
13869;BME280;7004;48.206;16.402;2023-04-02T04:47:23;98941.91;;;10.88;77.83
13869;BME280;7004;48.206;16.402;2023-04-02T04:50:13;98952.88;;;11.06;77.33
13869;BME280;7004;48.206;16.402;2023-04-02T04:52:44;98949.38;;;11.17;77.42
13869;BME280;7004;48.206;16.402;2023-04-02T04:55:39;98953.81;;;11.05;78.47
13869;BME280;7004;48.206;16.402;2023-04-02T05:01:09;98958.13;;;10.94;79.02
13869;BME280;7004;48.206;16.402;2023-04-02T05:04:00;98957.06;;;11.20;77.46
13869;BME280;7004;48.206;16.402;2023-04-02T05:20:39;98971.31;;;10.72;81.25
13869;BME280;7004;48.206;16.402;2023-04-02T05:23:33;98969.78;;;10.81;81.64
13869;BME280;7004;48.206;16.402;2023-04-02T05:26:31;98969.09;;;11.12;80.22
13869;BME280;7004;48.206;16.402;2023-04-02T05:29:13;98976.72;;;10.70;81.46
13869;BME280;7004;48.206;16.402;2023-04-02T05:32:01;98974.22;;;10.91;80.95
13869;BME280;7004;48.206;16.402;2023-04-02T05:34:34;98978.44;;;10.83;81.50
13869;BME280;7004;48.206;16.402;2023-04-02T05:37:03;98971.22;;;10.85;82.19
13869;BME280;7004;48.206;16.402;2023-04-02T05:39:30;98974.06;;;10.70;83.75
13869;BME280;7004;48.206;16.402;2023-04-02T05:42:06;98977.34;;;10.85;82.28
13869;BME280;7004;48.206;16.402;2023-04-02T05:45:00;98982.91;;;10.93;82.89
13869;BME280;7004;48.206;16.402;2023-04-02T05:47:31;98998.34;;;10.64;84.64
13869;BME280;7004;48.206;16.402;2023-04-02T05:52:36;98985.88;;;10.78;84.18
13869;BME280;7004;48.206;16.402;2023-04-02T05:57:55;99000.09;;;10.88;85.66
13869;BME280;7004;48.206;16.402;2023-04-02T06:03:18;98997.69;;;10.96;84.58
13869;BME280;7004;48.206;16.402;2023-04-02T06:05:50;99004.94;;;11.05;84.42
13869;BME280;7004;48.206;16.402;2023-04-02T06:08:30;98999.69;;;10.81;86.82
13869;BME280;7004;48.206;16.402;2023-04-02T06:11:13;99004.13;;;10.81;87.23
13869;BME280;7004;48.206;16.402;2023-04-02T06:13:42;99017.00;;;10.74;87.08
13869;BME280;7004;48.206;16.402;2023-04-02T06:16:13;99014.53;;;11.06;85.51
13869;BME280;7004;48.206;16.402;2023-04-02T06:18:42;99015.22;;;10.86;86.20
13869;BME280;7004;48.206;16.402;2023-04-02T06:21:13;99015.88;;;11.12;84.92
13869;BME280;7004;48.206;16.402;2023-04-02T06:23:54;99015.72;;;11.02;85.93
13869;BME280;7004;48.206;16.402;2023-04-02T06:26:33;99012.50;;;11.44;83.44
13869;BME280;7004;48.206;16.402;2023-04-02T06:32:01;99010.72;;;11.10;85.04
13869;BME280;7004;48.206;16.402;2023-04-02T06:34:29;99021.41;;;11.20;83.85
13869;BME280;7004;48.206;16.402;2023-04-02T06:37:01;99027.81;;;11.29;83.46
13869;BME280;7004;48.206;16.402;2023-04-02T06:39:29;99031.50;;;11.15;84.17
13869;BME280;7004;48.206;16.402;2023-04-02T06:42:20;99027.34;;;11.57;82.74
13869;BME280;7004;48.206;16.402;2023-04-02T06:44:48;99032.88;;;11.88;82.23
13869;BME280;7004;48.206;16.402;2023-04-02T06:47:32;99038.50;;;11.61;83.43
13869;BME280;7004;48.206;16.402;2023-04-02T06:50:18;99038.78;;;11.47;83.16
13869;BME280;7004;48.206;16.402;2023-04-02T06:52:57;99032.97;;;11.53;82.95
13869;BME280;7004;48.206;16.402;2023-04-02T06:55:53;99038.50;;;11.27;83.91
13869;BME280;7004;48.206;16.402;2023-04-02T06:58:21;99041.03;;;11.74;83.39
13869;BME280;7004;48.206;16.402;2023-04-02T07:00:49;99046.44;;;11.72;81.50
13869;BME280;7004;48.206;16.402;2023-04-02T07:03:24;99046.94;;;11.66;82.83
13869;BME280;7004;48.206;16.402;2023-04-02T07:05:52;99045.84;;;11.80;81.75
13869;BME280;7004;48.206;16.402;2023-04-02T07:08:19;99046.31;;;12.08;80.03
13869;BME280;7004;48.206;16.402;2023-04-02T07:10:47;99054.50;;;11.82;81.53
13869;BME280;7004;48.206;16.402;2023-04-02T07:13:19;99053.06;;;11.67;81.86
13869;BME280;7004;48.206;16.402;2023-04-02T07:15:52;99051.50;;;11.53;81.32
13869;BME280;7004;48.206;16.402;2023-04-02T07:18:25;99052.94;;;12.13;79.29
13869;BME280;7004;48.206;16.402;2023-04-02T07:20:53;99054.50;;;12.16;79.47
13869;BME280;7004;48.206;16.402;2023-04-02T07:23:19;99056.19;;;12.17;78.52
13869;BME280;7004;48.206;16.402;2023-04-02T07:25:54;99063.81;;;12.54;77.77
13869;BME280;7004;48.206;16.402;2023-04-02T07:28:24;99057.25;;;12.26;78.38
13869;BME280;7004;48.206;16.402;2023-04-02T07:30:53;99064.44;;;12.46;77.60
13869;BME280;7004;48.206;16.402;2023-04-02T07:33:26;99063.66;;;12.12;79.38
13869;BME280;7004;48.206;16.402;2023-04-02T07:35:55;99073.69;;;12.52;77.24
13869;BME280;7004;48.206;16.402;2023-04-02T07:38:23;99070.50;;;12.58;76.06
13869;BME280;7004;48.206;16.402;2023-04-02T07:40:49;99074.97;;;12.57;76.86
13869;BME280;7004;48.206;16.402;2023-04-02T07:43:16;99072.78;;;12.62;76.39
13869;BME280;7004;48.206;16.402;2023-04-02T07:45:42;99069.97;;;13.07;74.98
13869;BME280;7004;48.206;16.402;2023-04-02T07:48:11;99079.47;;;13.10;74.36
13869;BME280;7004;48.206;16.402;2023-04-02T07:50:38;99079.06;;;13.15;74.27
13869;BME280;7004;48.206;16.402;2023-04-02T07:53:04;99077.47;;;13.23;73.47
13869;BME280;7004;48.206;16.402;2023-04-02T07:55:31;99091.78;;;13.32;72.10
13869;BME280;7004;48.206;16.402;2023-04-02T07:57:58;99087.75;;;13.59;71.39
13869;BME280;7004;48.206;16.402;2023-04-02T08:00:27;99099.91;;;12.98;73.86
13869;BME280;7004;48.206;16.402;2023-04-02T08:02:54;99094.59;;;13.92;70.32
13869;BME280;7004;48.206;16.402;2023-04-02T08:05:20;99095.53;;;13.81;71.47
13869;BME280;7004;48.206;16.402;2023-04-02T08:07:54;99094.47;;;13.63;70.25
13869;BME280;7004;48.206;16.402;2023-04-02T08:10:22;99098.25;;;13.91;69.25
13869;BME280;7004;48.206;16.402;2023-04-02T08:12:49;99108.94;;;12.96;71.38
13869;BME280;7004;48.206;16.402;2023-04-02T08:15:16;99103.25;;;13.32;71.59
13869;BME280;7004;48.206;16.402;2023-04-02T08:17:45;99113.91;;;13.21;71.21
13869;BME280;7004;48.206;16.402;2023-04-02T08:20:21;99115.91;;;13.08;72.35
13869;BME280;7004;48.206;16.402;2023-04-02T08:22:49;99106.84;;;13.73;70.70
13869;BME280;7004;48.206;16.402;2023-04-02T08:25:16;99118.28;;;13.74;70.83
13869;BME280;7004;48.206;16.402;2023-04-02T08:27:47;99118.22;;;13.01;72.77
13869;BME280;7004;48.206;16.402;2023-04-02T08:30:17;99121.22;;;12.97;75.07
13869;BME280;7004;48.206;16.402;2023-04-02T08:32:44;99120.03;;;13.01;73.35
13869;BME280;7004;48.206;16.402;2023-04-02T08:35:13;99125.78;;;13.06;75.47
13869;BME280;7004;48.206;16.402;2023-04-02T08:37:41;99120.97;;;13.32;74.01
13869;BME280;7004;48.206;16.402;2023-04-02T08:40:37;99126.41;;;13.30;73.28
13869;BME280;7004;48.206;16.402;2023-04-02T08:48:16;99120.75;;;13.24;70.72
13869;BME280;7004;48.206;16.402;2023-04-02T08:50:43;99144.59;;;13.56;70.43
13869;BME280;7004;48.206;16.402;2023-04-02T08:53:22;99136.19;;;13.30;70.74
13869;BME280;7004;48.206;16.402;2023-04-02T08:56:23;99135.78;;;13.76;69.66
13869;BME280;7004;48.206;16.402;2023-04-02T08:58:53;99134.22;;;13.11;72.03
13869;BME280;7004;48.206;16.402;2023-04-02T09:04:31;99148.25;;;13.34;72.11
13869;BME280;7004;48.206;16.402;2023-04-02T09:06:59;99147.81;;;12.85;73.24
13869;BME280;7004;48.206;16.402;2023-04-02T09:09:26;99155.25;;;12.59;74.55
13869;BME280;7004;48.206;16.402;2023-04-02T09:11:58;99155.50;;;13.00;73.21
13869;BME280;7004;48.206;16.402;2023-04-02T09:17:04;99160.19;;;12.96;73.24
13869;BME280;7004;48.206;16.402;2023-04-02T09:19:40;99153.03;;;13.61;71.58
13869;BME280;7004;48.206;16.402;2023-04-02T09:22:39;99159.81;;;13.54;70.61
13869;BME280;7004;48.206;16.402;2023-04-02T09:25:18;99160.50;;;13.67;70.90
13869;BME280;7004;48.206;16.402;2023-04-02T09:27:49;99159.78;;;13.65;69.18
13869;BME280;7004;48.206;16.402;2023-04-02T09:33:04;99167.78;;;13.01;70.79
13869;BME280;7004;48.206;16.402;2023-04-02T09:38:19;99169.63;;;12.89;68.71
13869;BME280;7004;48.206;16.402;2023-04-02T09:41:06;99175.06;;;12.87;67.55
13869;BME280;7004;48.206;16.402;2023-04-02T09:43:44;99182.34;;;12.74;68.07
13869;BME280;7004;48.206;16.402;2023-04-02T09:46:24;99182.34;;;13.06;66.34
13869;BME280;7004;48.206;16.402;2023-04-02T09:48:56;99178.28;;;13.02;65.34
13869;BME280;7004;48.206;16.402;2023-04-02T09:51:31;99178.16;;;13.78;64.56
13869;BME280;7004;48.206;16.402;2023-04-02T10:01:57;99187.81;;;13.37;63.82
13869;BME280;7004;48.206;16.402;2023-04-02T10:04:45;99175.06;;;14.75;59.28
13869;BME280;7004;48.206;16.402;2023-04-02T10:07:44;99175.09;;;14.13;60.71
13869;BME280;7004;48.206;16.402;2023-04-02T10:16:14;99179.00;;;15.10;61.38
13869;BME280;7004;48.206;16.402;2023-04-02T10:19:28;99179.09;;;14.29;63.38
13869;BME280;7004;48.206;16.402;2023-04-02T10:21:57;99177.84;;;14.73;62.84
13869;BME280;7004;48.206;16.402;2023-04-02T10:24:28;99183.00;;;14.25;64.35
13869;BME280;7004;48.206;16.402;2023-04-02T10:27:25;99182.28;;;14.53;63.57
13869;BME280;7004;48.206;16.402;2023-04-02T10:30:00;99184.50;;;14.48;63.05
13869;BME280;7004;48.206;16.402;2023-04-02T10:32:47;99192.28;;;13.79;65.60
13869;BME280;7004;48.206;16.402;2023-04-02T10:38:40;99180.63;;;14.31;62.91
13869;BME280;7004;48.206;16.402;2023-04-02T10:44:19;99179.03;;;15.29;63.84
13869;BME280;7004;48.206;16.402;2023-04-02T10:50:14;99190.53;;;14.19;69.83
13869;BME280;7004;48.206;16.402;2023-04-02T10:55:32;99193.72;;;13.83;67.81
13869;BME280;7004;48.206;16.402;2023-04-02T10:58:25;99211.91;;;13.87;69.88
13869;BME280;7004;48.206;16.402;2023-04-02T11:01:02;99199.47;;;13.14;69.66
13869;BME280;7004;48.206;16.402;2023-04-02T11:03:49;99221.41;;;13.16;71.68
13869;BME280;7004;48.206;16.402;2023-04-02T11:06:39;99219.53;;;12.95;72.43
13869;BME280;7004;48.206;16.402;2023-04-02T11:09:18;99220.22;;;13.73;72.02
13869;BME280;7004;48.206;16.402;2023-04-02T11:11:50;99216.16;;;13.99;72.01
13869;BME280;7004;48.206;16.402;2023-04-02T11:14:24;99221.16;;;13.51;73.86
13869;BME280;7004;48.206;16.402;2023-04-02T11:16:53;99232.72;;;13.29;72.24
13869;BME280;7004;48.206;16.402;2023-04-02T11:19:29;99231.59;;;12.88;72.70
13869;BME280;7004;48.206;16.402;2023-04-02T11:24:52;99243.16;;;12.98;73.09
13869;BME280;7004;48.206;16.402;2023-04-02T11:27:30;99244.44;;;13.26;70.15
13869;BME280;7004;48.206;16.402;2023-04-02T11:30:04;99245.78;;;13.53;69.15
13869;BME280;7004;48.206;16.402;2023-04-02T11:32:39;99262.47;;;13.44;70.32
13869;BME280;7004;48.206;16.402;2023-04-02T11:38:48;99301.53;;;12.64;72.81
13869;BME280;7004;48.206;16.402;2023-04-02T11:40:58;99310.41;;;11.24;75.60
13869;BME280;7004;48.206;16.402;2023-04-02T11:46:03;99338.06;;;10.94;90.72
13869;BME280;7004;48.206;16.402;2023-04-02T11:48:35;99342.09;;;10.87;93.90
13869;BME280;7004;48.206;16.402;2023-04-02T11:53:46;99349.56;;;10.43;98.34
13869;BME280;7004;48.206;16.402;2023-04-02T11:56:20;99349.44;;;9.79;100.00
13869;BME280;7004;48.206;16.402;2023-04-02T11:59:46;99359.41;;;10.14;100.00
13869;BME280;7004;48.206;16.402;2023-04-02T12:02:23;99355.94;;;10.26;100.00
13869;BME280;7004;48.206;16.402;2023-04-02T12:11:12;99373.22;;;10.83;100.00
13869;BME280;7004;48.206;16.402;2023-04-02T12:16:15;99384.06;;;10.15;100.00
13869;BME280;7004;48.206;16.402;2023-04-02T12:18:48;99391.13;;;9.74;100.00
13869;BME280;7004;48.206;16.402;2023-04-02T12:21:24;99394.44;;;9.63;100.00
13869;BME280;7004;48.206;16.402;2023-04-02T12:23:53;99395.72;;;9.44;100.00
13869;BME280;7004;48.206;16.402;2023-04-02T12:26:34;99396.78;;;9.41;100.00
13869;BME280;7004;48.206;16.402;2023-04-02T12:29:27;99398.34;;;9.58;100.00
13869;BME280;7004;48.206;16.402;2023-04-02T12:31:56;99403.94;;;9.93;100.00
13869;BME280;7004;48.206;16.402;2023-04-02T12:34:26;99408.19;;;9.96;100.00
13869;BME280;7004;48.206;16.402;2023-04-02T12:37:02;99408.34;;;9.53;100.00
13869;BME280;7004;48.206;16.402;2023-04-02T12:39:30;99411.72;;;10.09;100.00
13869;BME280;7004;48.206;16.402;2023-04-02T12:41:57;99410.78;;;9.56;99.55
13869;BME280;7004;48.206;16.402;2023-04-02T12:44:28;99421.94;;;9.74;100.00
13869;BME280;7004;48.206;16.402;2023-04-02T12:46:56;99421.16;;;10.26;100.00
13869;BME280;7004;48.206;16.402;2023-04-02T12:49:49;99427.53;;;9.96;99.83
13869;BME280;7004;48.206;16.402;2023-04-02T12:52:19;99424.50;;;10.15;97.74
13869;BME280;7004;48.206;16.402;2023-04-02T12:54:52;99422.38;;;9.53;96.93
13869;BME280;7004;48.206;16.402;2023-04-02T13:02:29;99430.97;;;9.28;98.41
13869;BME280;7004;48.206;16.402;2023-04-02T13:05:00;99449.59;;;9.95;97.31
13869;BME280;7004;48.206;16.402;2023-04-02T13:07:31;99449.41;;;9.57;97.06
13869;BME280;7004;48.206;16.402;2023-04-02T13:10:05;99445.13;;;9.96;95.92
13869;BME280;7004;48.206;16.402;2023-04-02T13:12:46;99448.06;;;9.78;98.17
13869;BME280;7004;48.206;16.402;2023-04-02T13:15:30;99450.69;;;10.33;96.33
13869;BME280;7004;48.206;16.402;2023-04-02T13:20:52;99455.63;;;9.97;96.30
13869;BME280;7004;48.206;16.402;2023-04-02T13:28:34;99466.19;;;10.77;92.46
13869;BME280;7004;48.206;16.402;2023-04-02T13:31:00;99458.75;;;10.57;93.86
13869;BME280;7004;48.206;16.402;2023-04-02T13:33:26;99468.69;;;10.26;93.07
13869;BME280;7004;48.206;16.402;2023-04-02T13:35:53;99461.81;;;10.23;95.70
13869;BME280;7004;48.206;16.402;2023-04-02T13:38:19;99470.38;;;10.54;92.31
13869;BME280;7004;48.206;16.402;2023-04-02T13:40:46;99472.13;;;10.28;93.70
13869;BME280;7004;48.206;16.402;2023-04-02T13:43:18;99473.03;;;10.27;91.51
13869;BME280;7004;48.206;16.402;2023-04-02T13:45:49;99465.25;;;10.11;92.43
13869;BME280;7004;48.206;16.402;2023-04-02T13:48:17;99467.28;;;10.47;92.66
13869;BME280;7004;48.206;16.402;2023-04-02T13:50:44;99472.53;;;9.80;92.38
13869;BME280;7004;48.206;16.402;2023-04-02T13:53:23;99466.72;;;10.69;92.76
13869;BME280;7004;48.206;16.402;2023-04-02T13:55:51;99479.22;;;10.27;91.22
13869;BME280;7004;48.206;16.402;2023-04-02T13:58:18;99475.78;;;11.42;88.26
13869;BME280;7004;48.206;16.402;2023-04-02T14:00:45;99478.53;;;11.28;91.63
13869;BME280;7004;48.206;16.402;2023-04-02T14:03:21;99476.59;;;11.55;91.40
13869;BME280;7004;48.206;16.402;2023-04-02T14:06:03;99471.94;;;11.46;92.35
13869;BME280;7004;48.206;16.402;2023-04-02T14:11:50;99469.69;;;11.66;89.24
13869;BME280;7004;48.206;16.402;2023-04-02T14:23:13;99484.97;;;10.60;88.37
13869;BME280;7004;48.206;16.402;2023-04-02T14:40:51;99506.44;;;10.68;89.46
13869;BME280;7004;48.206;16.402;2023-04-02T14:43:35;99504.84;;;10.65;91.14
13869;BME280;7004;48.206;16.402;2023-04-02T14:46:07;99491.13;;;13.73;88.54
13869;BME280;7004;48.206;16.402;2023-04-02T14:51:44;99493.38;;;12.17;86.73
13869;BME280;7004;48.206;16.402;2023-04-02T14:54:27;99508.81;;;10.98;89.78
13869;BME280;7004;48.206;16.402;2023-04-02T14:57:05;99515.03;;;11.35;90.13
13869;BME280;7004;48.206;16.402;2023-04-02T15:03:22;99516.31;;;11.04;91.31
13869;BME280;7004;48.206;16.402;2023-04-02T15:06:12;99514.63;;;10.90;90.35
13869;BME280;7004;48.206;16.402;2023-04-02T15:08:51;99524.38;;;11.15;88.22
13869;BME280;7004;48.206;16.402;2023-04-02T15:14:24;99517.47;;;11.51;85.14
13869;BME280;7004;48.206;16.402;2023-04-02T15:16:48;99520.88;;;11.41;84.00
13869;BME280;7004;48.206;16.402;2023-04-02T15:19:17;99527.97;;;11.14;85.57
13869;BME280;7004;48.206;16.402;2023-04-02T15:22:30;99531.03;;;10.96;83.20
13869;BME280;7004;48.206;16.402;2023-04-02T15:25:49;99522.97;;;10.97;84.57
13869;BME280;7004;48.206;16.402;2023-04-02T15:31:18;99544.16;;;11.23;83.27
13869;BME280;7004;48.206;16.402;2023-04-02T15:34:26;99544.84;;;10.19;82.69
13869;BME280;7004;48.206;16.402;2023-04-02T15:37:41;99561.53;;;10.61;83.97
13869;BME280;7004;48.206;16.402;2023-04-02T15:40:15;99566.94;;;10.33;83.10
13869;BME280;7004;48.206;16.402;2023-04-02T15:43:26;99575.41;;;10.38;84.18
13869;BME280;7004;48.206;16.402;2023-04-02T15:47:03;99581.22;;;10.01;82.52
13869;BME280;7004;48.206;16.402;2023-04-02T15:49:42;99594.72;;;9.97;82.48
13869;BME280;7004;48.206;16.402;2023-04-02T15:55:38;99617.47;;;9.71;82.16
13869;BME280;7004;48.206;16.402;2023-04-02T16:01:55;99625.75;;;9.65;80.70
13869;BME280;7004;48.206;16.402;2023-04-02T16:04:52;99629.81;;;9.84;80.28
13869;BME280;7004;48.206;16.402;2023-04-02T16:10:40;99647.25;;;9.58;80.52
13869;BME280;7004;48.206;16.402;2023-04-02T16:13:34;99657.50;;;9.49;81.42
13869;BME280;7004;48.206;16.402;2023-04-02T16:16:20;99664.09;;;9.56;80.71
13869;BME280;7004;48.206;16.402;2023-04-02T16:21:38;99662.69;;;10.36;79.32
13869;BME280;7004;48.206;16.402;2023-04-02T16:24:11;99668.38;;;9.87;80.21
13869;BME280;7004;48.206;16.402;2023-04-02T16:35:13;99686.19;;;9.98;78.96
13869;BME280;7004;48.206;16.402;2023-04-02T16:41:53;99692.88;;;9.60;76.82
13869;BME280;7004;48.206;16.402;2023-04-02T16:45:17;99700.06;;;9.12;77.24
13869;BME280;7004;48.206;16.402;2023-04-02T17:05:31;99756.13;;;9.00;72.51
13869;BME280;7004;48.206;16.402;2023-04-02T17:08:26;99767.81;;;8.48;74.83
13869;BME280;7004;48.206;16.402;2023-04-02T17:14:24;99787.28;;;8.62;75.28
13869;BME280;7004;48.206;16.402;2023-04-02T17:17:01;99790.94;;;8.59;75.05
13869;BME280;7004;48.206;16.402;2023-04-02T17:19:30;99790.31;;;8.03;74.98
13869;BME280;7004;48.206;16.402;2023-04-02T17:22:01;99796.69;;;7.99;73.62
13869;BME280;7004;48.206;16.402;2023-04-02T17:27:25;99812.09;;;8.07;73.63
13869;BME280;7004;48.206;16.402;2023-04-02T17:30:00;99811.78;;;7.96;73.86
13869;BME280;7004;48.206;16.402;2023-04-02T17:32:33;99821.69;;;8.08;72.45
13869;BME280;7004;48.206;16.402;2023-04-02T17:37:51;99836.56;;;7.74;72.23
13869;BME280;7004;48.206;16.402;2023-04-02T17:43:46;99847.16;;;8.07;71.65
13869;BME280;7004;48.206;16.402;2023-04-02T18:01:52;99902.41;;;7.17;67.03
13869;BME280;7004;48.206;16.402;2023-04-02T18:04:22;99917.47;;;7.33;66.71
13869;BME280;7004;48.206;16.402;2023-04-02T18:13:51;99933.94;;;7.36;67.57
13869;BME280;7004;48.206;16.402;2023-04-02T18:16:49;99939.22;;;7.36;66.47
13869;BME280;7004;48.206;16.402;2023-04-02T18:23:12;99945.09;;;7.41;65.66
13869;BME280;7004;48.206;16.402;2023-04-02T18:26:35;99954.94;;;7.19;64.76
13869;BME280;7004;48.206;16.402;2023-04-02T18:47:39;100016.25;;;7.19;66.58
13869;BME280;7004;48.206;16.402;2023-04-02T18:50:30;100011.97;;;6.57;67.84
13869;BME280;7004;48.206;16.402;2023-04-02T18:53:01;100017.13;;;6.99;67.10